Time;durP1;ratioP1;P1;durP2;ratioP2;P2;SDS_P1;SDS_P2;PMS_P1;PMS_P2;Temp;Humidity;BMP_temperature;BMP_pressure;BME280_temperature;BME280_humidity;BME280_pressure;Samples;Min_cycle;Max_cycle;Signal;HPM_P1;HPM_P2
2021/04/10 00:00:00;;;;;;;21.73;11.73;;;;;;;5.04;55.12;98894.90;113296;1202;64285;-82
2021/04/10 00:02:27;;;;;;;19.70;13.00;;;;;;;5.01;55.28;98885.33;113285;1202;64414;-82
2021/04/10 00:04:54;;;;;;;20.47;14.67;;;;;;;4.98;55.36;98876.70;113206;1203;64388;-82
2021/04/10 00:07:21;;;;;;;24.97;14.63;;;;;;;4.97;55.40;98877.61;113321;1202;64404;-80
2021/04/10 00:09:47;;;;;;;22.60;14.35;;;;;;;4.98;55.65;98885.48;113250;1202;64375;-81
2021/04/10 00:12:14;;;;;;;23.80;14.77;;;;;;;4.97;55.63;98888.17;113418;1202;64375;-81
2021/04/10 00:14:41;;;;;;;22.40;14.25;;;;;;;4.95;55.59;98885.63;113320;1202;64391;-79
2021/04/10 00:17:08;;;;;;;19.13;12.77;;;;;;;4.98;55.63;98885.48;113392;1202;64423;-79
2021/04/10 00:19:35;;;;;;;16.37;11.67;;;;;;;5.04;55.67;98892.25;113527;1206;64388;-80
2021/04/10 00:22:02;;;;;;;17.70;11.33;;;;;;;5.09;55.47;98892.05;113612;1203;64542;-79
2021/04/10 00:24:29;;;;;;;16.90;10.80;;;;;;;5.13;55.52;98883.89;113610;1202;64407;-80
2021/04/10 00:26:55;;;;;;;15.20;10.23;;;;;;;5.18;55.41;98895.09;113567;1203;64451;-80
2021/04/10 00:29:22;;;;;;;15.63;9.73;;;;;;;5.21;55.46;98886.17;113463;1202;64349;-80
2021/04/10 00:31:49;;;;;;;16.85;9.60;;;;;;;5.26;55.44;98887.67;113202;1203;64368;-80
2021/04/10 00:34:15;;;;;;;14.45;9.70;;;;;;;5.28;55.61;98891.10;113135;1202;64538;-82
2021/04/10 00:36:42;;;;;;;14.20;9.50;;;;;;;5.30;55.41;98879.63;113206;1202;64422;-80
2021/04/10 00:39:09;;;;;;;22.87;12.87;;;;;;;5.32;55.75;98889.19;113329;1203;64391;-81
2021/04/10 00:41:35;;;;;;;31.75;19.65;;;;;;;5.32;56.83;98883.91;113258;1203;64328;-80
2021/04/10 00:44:02;;;;;;;40.20;24.80;;;;;;;5.21;57.34;98887.06;113286;1203;64323;-80
2021/04/10 00:46:28;;;;;;;42.50;26.45;;;;;;;5.09;57.13;98878.84;113314;1202;64388;-80
2021/04/10 00:48:55;;;;;;;44.35;27.70;;;;;;;4.97;57.49;98886.38;113214;1202;64806;-79
2021/04/10 00:51:21;;;;;;;48.67;33.17;;;;;;;4.86;57.49;98882.53;113243;1203;64417;-79
2021/04/10 00:53:48;;;;;;;52.25;37.00;;;;;;;4.73;58.17;98890.14;113188;1203;64327;-80
2021/04/10 00:56:14;;;;;;;46.93;32.20;;;;;;;4.59;58.36;98886.34;113182;1203;64579;-79
2021/04/10 00:58:41;;;;;;;45.47;29.17;;;;;;;4.47;58.31;98892.15;113174;1203;64442;-80
2021/04/10 01:01:08;;;;;;;38.60;26.30;;;;;;;4.42;58.78;98895.91;113306;1202;64388;-80
2021/04/10 01:03:35;;;;;;;44.47;26.57;;;;;;;4.36;58.88;98897.05;113264;1203;64369;-81
2021/04/10 01:06:02;;;;;;;41.27;24.13;;;;;;;4.35;58.87;98895.34;113235;1202;64423;-81
2021/04/10 01:08:30;;;;;;;37.73;25.00;;;;;;;4.32;59.07;98885.78;113318;1203;64423;-81
2021/04/10 01:11:19;;;;;;;41.30;27.65;;;;;;;4.28;58.92;98891.24;113289;1202;64460;-80
2021/04/10 01:14:11;;;;;;;57.80;36.10;;;;;;;4.16;59.70;98895.24;113208;1203;64936;-80
2021/04/10 01:16:43;;;;;;;63.80;38.73;;;;;;;3.99;59.93;98892.48;113227;1203;64422;-80
2021/04/10 01:19:44;;;;;;;53.40;33.80;;;;;;;3.85;59.92;98888.64;113243;1203;64455;-80
2021/04/10 01:22:54;;;;;;;42.25;29.20;;;;;;;3.78;60.11;98888.95;113223;1202;64411;-81
2021/04/10 01:25:31;;;;;;;39.60;27.20;;;;;;;3.69;60.41;98896.31;113264;1202;64509;-80
2021/04/10 01:27:59;;;;;;;41.23;26.83;;;;;;;3.61;60.13;98892.28;113323;1203;64427;-81
2021/04/10 01:30:30;;;;;;;37.50;26.85;;;;;;;3.54;60.45;98889.02;113381;1203;64764;-80
2021/04/10 01:33:06;;;;;;;43.70;28.40;;;;;;;3.52;60.87;98894.34;113413;1203;64468;-83
2021/04/10 01:35:47;;;;;;;45.33;31.37;;;;;;;3.46;60.87;98891.96;113393;1203;64413;-81
2021/04/10 01:38:17;;;;;;;46.60;30.95;;;;;;;3.45;61.03;98890.26;113365;1203;64397;-82
2021/04/10 01:40:49;;;;;;;50.40;32.37;;;;;;;3.43;60.97;98889.45;113326;1202;64369;-83
2021/04/10 01:43:16;;;;;;;49.50;33.77;;;;;;;3.43;61.10;98888.61;113369;1203;64443;-82
2021/04/10 01:45:44;;;;;;;54.77;39.00;;;;;;;3.42;61.11;98887.75;113322;1202;64461;-80
2021/04/10 01:48:14;;;;;;;53.15;39.10;;;;;;;3.39;61.12;98893.11;113332;1202;64388;-80
2021/04/10 01:50:42;;;;;;;60.75;40.15;;;;;;;3.32;61.42;98890.78;113374;1203;64844;-81
2021/04/10 01:53:10;;;;;;;55.03;38.73;;;;;;;3.23;61.57;98892.86;113371;1202;64385;-81
2021/04/10 01:55:39;;;;;;;54.57;37.03;;;;;;;3.17;61.76;98885.20;113516;1202;64500;-81
2021/04/10 01:58:06;;;;;;;50.77;35.73;;;;;;;3.08;61.80;98886.42;113254;1202;64366;-90
2021/04/10 02:00:36;;;;;;;47.37;33.27;;;;;;;3.02;62.06;98896.31;113284;1202;64378;-80
2021/04/10 02:03:05;;;;;;;53.93;38.27;;;;;;;2.95;62.31;98895.70;113359;1203;64398;-80
2021/04/10 02:05:33;;;;;;;63.75;47.55;;;;;;;2.94;62.70;98890.48;113309;1203;64468;-80
2021/04/10 02:08:02;;;;;;;62.95;46.95;;;;;;;2.90;62.81;98889.75;113280;1203;64324;-80
2021/04/10 02:10:30;;;;;;;60.77;45.00;;;;;;;2.88;63.07;98893.36;113357;1203;64662;-81
2021/04/10 02:12:57;;;;;;;71.05;46.30;;;;;;;2.83;63.41;98885.63;113235;1203;64455;-81
2021/04/10 02:15:24;;;;;;;62.45;45.90;;;;;;;2.75;63.53;98892.95;113407;1203;64506;-81
2021/04/10 02:17:54;;;;;;;61.20;42.90;;;;;;;2.66;63.79;98891.52;113371;1202;64528;-80
2021/04/10 02:20:22;;;;;;;;;;;;;;;2.60;63.67;98889.95;113268;1210;64394;-79
2021/04/10 02:22:52;;;;;;;59.55;41.70;;;;;;;2.57;63.66;98889.21;113240;1202;64390;-80
2021/04/10 02:25:24;;;;;;;65.10;44.70;;;;;;;2.52;63.83;98893.78;113254;1202;64343;-80
2021/04/10 02:27:52;;;;;;;61.70;42.70;;;;;;;2.47;64.03;98895.71;113192;1203;65029;-80
2021/04/10 02:30:21;;;;;;;65.00;43.60;;;;;;;2.43;64.13;98886.23;113292;1203;64459;-80
2021/04/10 02:32:58;;;;;;;65.10;42.93;;;;;;;2.36;64.34;98883.80;113226;1203;64403;-81
2021/04/10 02:35:36;;;;;;;55.70;38.13;;;;;;;2.28;64.57;98884.99;113255;1202;64474;-80
2021/04/10 02:38:06;;;;;;;52.70;36.70;;;;;;;2.19;64.52;98886.18;113310;1203;64513;-80
2021/04/10 02:40:36;;;;;;;53.47;35.93;;;;;;;2.09;64.63;98887.41;113292;1202;64423;-79
2021/04/10 02:43:07;;;;;;;45.80;30.30;;;;;;;2.02;64.70;98893.77;113163;1203;64483;-79
2021/04/10 02:45:35;;;;;;;50.23;33.73;;;;;;;1.93;64.86;98885.29;113197;1202;64378;-80
2021/04/10 02:48:09;;;;;;;51.60;36.20;;;;;;;1.89;64.88;98886.29;113215;1203;64401;-81
2021/04/10 02:50:38;;;;;;;48.80;35.30;;;;;;;1.88;65.05;98895.09;113168;1203;64493;-80
2021/04/10 02:53:07;;;;;;;54.97;37.27;;;;;;;1.88;65.18;98891.62;113212;1203;64327;-81
2021/04/10 02:55:44;;;;;;;56.70;36.50;;;;;;;1.86;65.10;98891.66;113356;1202;64966;-81
2021/04/10 02:58:13;;;;;;;47.87;35.30;;;;;;;1.82;65.24;98887.42;113209;1203;64391;-80
2021/04/10 03:00:43;;;;;;;47.60;33.20;;;;;;;1.82;65.32;98890.05;113418;1202;64400;-80
2021/04/10 03:03:14;;;;;;;;;;;;;;;1.84;65.54;98885.58;113332;1210;64369;-81
2021/04/10 03:05:46;;;;;;;42.90;31.40;;;;;;;1.81;65.52;98888.31;113229;1202;64617;-80
2021/04/10 03:08:21;;;;;;;45.80;31.83;;;;;;;1.87;65.65;98888.14;113302;1202;64452;-80
2021/04/10 03:10:53;;;;;;;46.60;31.20;;;;;;;1.89;65.80;98885.44;113411;1203;64346;-80
2021/04/10 03:13:22;;;;;;;50.30;32.75;;;;;;;1.87;65.82;98885.51;113347;1202;64478;-80
2021/04/10 03:15:54;;;;;;;49.33;35.90;;;;;;;1.85;66.17;98882.06;113350;1203;64468;-81
2021/04/10 03:18:22;;;;;;;54.30;35.13;;;;;;;1.83;66.43;98894.39;113283;1203;64362;-81
2021/04/10 03:20:49;;;;;;;46.30;34.75;;;;;;;1.82;66.59;98891.80;113405;1203;64394;-79
2021/04/10 03:23:16;;;;;;;40.93;32.40;;;;;;;1.83;66.44;98889.13;113114;1203;64371;-79
2021/04/10 03:25:43;;;;;;;42.20;31.10;;;;;;;1.79;66.69;98879.66;113357;1203;64346;-80
2021/04/10 03:28:11;;;;;;;47.50;33.20;;;;;;;1.75;66.49;98891.16;113245;1203;64390;-81
2021/04/10 03:30:39;;;;;;;43.80;31.45;;;;;;;1.70;66.50;98893.08;113201;1203;64519;-79
2021/04/10 03:33:07;;;;;;;45.80;32.80;;;;;;;1.62;66.41;98893.32;113283;1203;64353;-81
2021/04/10 03:35:35;;;;;;;37.25;27.75;;;;;;;1.58;66.42;98896.09;113446;1203;64343;-81
2021/04/10 03:38:02;;;;;;;45.43;30.80;;;;;;;1.51;66.65;98895.44;113203;1203;64336;-80
2021/04/10 03:40:29;;;;;;;47.20;31.40;;;;;;;1.47;66.66;98896.43;113408;1202;64506;-81
2021/04/10 03:42:56;;;;;;;43.05;29.40;;;;;;;1.45;66.94;98890.36;113270;1203;65692;-80
2021/04/10 03:45:23;;;;;;;40.70;29.55;;;;;;;1.41;66.83;98888.76;113242;1203;64416;-80
2021/04/10 03:47:51;;;;;;;43.13;29.07;;;;;;;1.41;67.03;98896.64;113283;1203;64455;-81
2021/04/10 03:50:19;;;;;;;43.80;29.35;;;;;;;1.36;67.12;98894.14;113445;1203;64381;-81
2021/04/10 03:52:45;;;;;;;45.13;31.27;;;;;;;1.35;67.04;98888.96;113331;1202;64529;-81
2021/04/10 03:55:12;;;;;;;43.10;31.45;;;;;;;1.38;67.21;98899.36;113327;1203;64537;-81
2021/04/10 03:57:39;;;;;;;48.17;33.03;;;;;;;1.38;67.27;98901.98;113223;1203;64387;-81
2021/04/10 04:00:07;;;;;;;50.30;33.55;;;;;;;1.35;67.26;98895.06;113171;1203;64420;-81
2021/04/10 04:02:34;;;;;;;51.60;34.90;;;;;;;1.35;67.58;98894.21;113279;1203;64375;-80
2021/04/10 04:05:01;;;;;;;44.70;29.60;;;;;;;1.37;67.51;98903.76;113224;1203;64267;-80
2021/04/10 04:07:28;;;;;;;39.50;29.05;;;;;;;1.39;67.51;98901.07;113240;1203;64394;-80
2021/04/10 04:09:54;;;;;;;47.70;32.37;;;;;;;1.42;67.27;98909.73;113374;1203;64544;-81
2021/04/10 04:12:21;;;;;;;41.67;30.07;;;;;;;1.49;67.45;98913.01;113244;1203;64423;-81
2021/04/10 04:14:47;;;;;;;38.30;30.10;;;;;;;1.50;67.40;98909.46;113362;1203;64426;-81
2021/04/10 04:17:14;;;;;;;46.75;32.60;;;;;;;1.58;67.23;98903.97;113304;1202;64403;-81
2021/04/10 04:19:40;;;;;;;43.10;32.50;;;;;;;1.78;67.23;98909.44;113284;1203;64455;-82
2021/04/10 04:22:07;;;;;;;43.10;31.65;;;;;;;2.19;66.93;98904.58;113398;1203;64361;-82
2021/04/10 04:24:33;;;;;;;41.33;30.73;;;;;;;2.67;66.46;98909.02;113359;1203;64387;-81
2021/04/10 04:27:00;;;;;;;44.10;30.90;;;;;;;3.08;65.79;98901.34;113319;1203;64391;-80
2021/04/10 04:29:28;;;;;;;43.20;31.10;;;;;;;3.38;65.33;98907.22;113295;1203;64333;-80
2021/04/10 04:31:54;;;;;;;43.10;31.80;;;;;;;3.73;65.12;98907.58;113263;1202;64497;-80
2021/04/10 04:34:21;;;;;;;39.97;31.57;;;;;;;3.91;64.75;98911.25;113235;1206;64378;-80
2021/04/10 04:36:47;;;;;;;40.50;31.60;;;;;;;3.84;64.49;98912.41;113232;1203;64512;-80
2021/04/10 04:39:14;;;;;;;40.07;32.03;;;;;;;3.88;64.33;98903.47;113231;1203;64397;-80
2021/04/10 04:41:41;;;;;;;43.90;32.80;;;;;;;3.89;63.76;98911.30;113216;1203;64970;-81
2021/04/10 04:44:07;;;;;;;42.30;34.50;;;;;;;3.99;64.07;98905.66;113202;1203;64365;-80
2021/04/10 04:46:34;;;;;;;41.75;31.65;;;;;;;4.26;63.60;98901.84;113466;1203;64385;-81
2021/04/10 04:49:01;;;;;;;40.30;33.17;;;;;;;4.54;63.10;98904.16;113310;1202;64385;-79
2021/04/10 04:51:27;;;;;;;43.63;36.67;;;;;;;4.66;62.42;98913.34;113408;1202;64426;-80
2021/04/10 04:53:54;;;;;;;38.33;33.23;;;;;;;4.30;63.09;98919.27;113419;1203;64404;-80
2021/04/10 04:56:21;;;;;;;44.70;34.40;;;;;;;4.35;62.98;98917.30;113448;1203;64561;-80
2021/04/10 04:58:48;;;;;;;40.50;32.00;;;;;;;4.50;63.44;98914.91;113463;1202;64442;-81
2021/04/10 05:01:14;;;;;;;44.30;34.40;;;;;;;5.02;63.41;98904.66;113482;1203;64385;-81
2021/04/10 05:03:41;;;;;;;47.50;34.90;;;;;;;5.68;62.02;98909.49;113385;1203;64349;-80
2021/04/10 05:06:07;;;;;;;51.25;37.70;;;;;;;6.28;61.08;98904.77;113352;1203;64535;-80
2021/04/10 05:08:34;;;;;;;52.35;42.35;;;;;;;6.78;60.34;98905.73;113246;1203;64502;-81
2021/04/10 05:11:01;;;;;;;47.35;39.15;;;;;;;7.21;59.85;98909.60;113211;1203;64393;-79
2021/04/10 05:13:27;;;;;;;48.10;40.00;;;;;;;7.69;59.77;98906.95;113264;1203;64432;-81
2021/04/10 05:15:57;;;;;;;48.65;38.95;;;;;;;8.15;58.87;98906.95;113221;1203;64423;-80
2021/04/10 05:18:25;;;;;;;51.50;37.70;;;;;;;8.41;58.47;98902.80;113446;1203;64454;-80
2021/04/10 05:20:51;;;;;;;38.85;34.65;;;;;;;8.64;57.90;98909.39;113332;1202;64523;-81
2021/04/10 05:23:23;;;;;;;41.50;34.30;;;;;;;8.87;57.43;98904.46;113287;1202;64448;-80
2021/04/10 05:25:51;;;;;;;44.20;34.53;;;;;;;9.17;57.13;98899.06;113274;1203;64394;-81
2021/04/10 05:28:17;;;;;;;52.55;36.40;;;;;;;9.32;56.70;98906.08;113278;1203;64840;-81
2021/04/10 05:30:44;;;;;;;49.70;36.10;;;;;;;9.51;56.78;98904.91;113251;1203;64477;-79
2021/04/10 05:33:11;;;;;;;75.20;36.57;;;;;;;9.85;56.33;98907.09;113213;1203;64468;-80
2021/04/10 05:35:39;;;;;;;79.30;39.20;;;;;;;10.14;55.79;98914.09;113208;1203;64364;-80
2021/04/10 05:38:06;;;;;;;80.13;39.43;;;;;;;10.30;55.41;98909.50;113244;1202;64356;-80
2021/04/10 05:40:32;;;;;;;55.13;36.50;;;;;;;10.77;55.46;98902.75;113202;1202;64356;-81
2021/04/10 05:42:59;;;;;;;47.80;35.10;;;;;;;11.24;55.07;98901.20;113200;1202;64477;-79
2021/04/10 05:45:25;;;;;;;56.05;35.45;;;;;;;11.62;54.46;98906.46;113303;1203;64404;-81
2021/04/10 05:47:52;;;;;;;52.47;35.37;;;;;;;11.97;53.96;98905.72;113216;1203;64337;-80
2021/04/10 05:50:18;;;;;;;49.55;32.95;;;;;;;12.29;53.16;98897.95;113443;1203;64378;-79
2021/04/10 05:52:46;;;;;;;67.55;46.15;;;;;;;12.45;52.90;98905.70;113346;1203;64484;-80
2021/04/10 05:55:14;;;;;;;65.50;42.90;;;;;;;12.40;52.69;98897.17;113341;1202;64471;-79
2021/04/10 05:57:41;;;;;;;65.60;43.45;;;;;;;12.27;52.54;98899.92;113251;1202;64500;-80
2021/04/10 06:00:08;;;;;;;59.50;40.73;;;;;;;12.23;52.16;98909.12;113280;1202;64410;-80
2021/04/10 06:02:37;;;;;;;53.80;36.38;;;;;;;12.37;51.71;98923.26;113243;1202;64320;-80
2021/04/10 06:05:05;;;;;;;43.75;30.15;;;;;;;12.38;51.41;98906.27;113255;1203;64436;-81
2021/04/10 06:07:31;;;;;;;35.30;24.60;;;;;;;12.48;51.15;98909.92;113226;1203;64480;-81
2021/04/10 06:09:58;;;;;;;38.10;26.30;;;;;;;12.69;51.06;98918.13;113270;1202;64525;-81
2021/04/10 06:12:24;;;;;;;38.80;26.83;;;;;;;12.88;50.77;98917.58;113326;1202;64925;-80
2021/04/10 06:14:51;;;;;;;36.10;23.20;;;;;;;12.95;50.03;98925.02;113200;1202;64388;-80
2021/04/10 06:17:18;;;;;;;25.17;18.77;;;;;;;13.03;49.88;98912.84;113215;1202;64432;-79
2021/04/10 06:19:44;;;;;;;28.70;19.97;;;;;;;13.22;49.66;98918.46;113212;1203;64378;-80
2021/04/10 06:22:11;;;;;;;26.90;18.30;;;;;;;13.42;49.71;98921.41;113360;1202;64439;-80
2021/04/10 06:24:37;;;;;;;23.95;16.15;;;;;;;13.66;49.20;98919.42;113333;1202;64490;-80
2021/04/10 06:27:04;;;;;;;22.00;14.40;;;;;;;13.84;49.42;98912.56;113832;1203;64375;-84
2021/04/10 06:29:32;;;;;;;18.30;13.70;;;;;;;14.10;49.03;98912.26;113785;1202;64362;-84
2021/04/10 06:31:59;;;;;;;23.20;12.30;;;;;;;14.37;48.74;98913.61;113787;1203;64383;-86
2021/04/10 06:34:26;;;;;;;19.15;12.75;;;;;;;14.51;48.33;98918.69;113663;1202;64359;-85
2021/04/10 06:36:53;;;;;;;16.20;12.75;;;;;;;14.58;48.04;98921.72;113701;1203;64391;-85
2021/04/10 06:39:20;;;;;;;17.30;12.50;;;;;;;14.62;48.32;98915.97;113542;1202;64583;-86
2021/04/10 06:41:46;;;;;;;14.60;11.15;;;;;;;14.56;48.09;98918.30;113435;1202;64391;-83
2021/04/10 06:44:13;;;;;;;17.03;11.93;;;;;;;14.45;47.94;98924.55;113425;1202;64745;-82
2021/04/10 06:46:39;;;;;;;17.83;11.30;;;;;;;14.34;47.86;98920.08;113281;1202;64452;-82
2021/04/10 06:49:09;;;;;;;16.70;11.70;;;;;;;14.24;47.94;98919.14;113530;1203;64394;-83
2021/04/10 06:51:40;;;;;;;15.67;10.97;;;;;;;14.14;47.81;98918.20;113173;1203;64324;-82
2021/04/10 06:54:08;;;;;;;16.70;10.80;;;;;;;13.96;47.48;98913.41;113459;1203;64394;-83
2021/04/10 06:56:38;;;;;;;20.55;10.95;;;;;;;13.85;47.78;98913.44;113552;1203;64510;-83
2021/04/10 06:59:16;;;;;;;11.17;8.03;;;;;;;13.73;46.98;98915.28;113409;1202;64413;-83
2021/04/10 07:01:43;;;;;;;12.35;9.05;;;;;;;13.58;47.41;98919.19;113523;1203;64429;-84
2021/04/10 07:04:11;;;;;;;9.60;6.70;;;;;;;13.56;47.61;98919.33;113381;1203;64330;-82
2021/04/10 07:06:38;;;;;;;10.17;6.83;;;;;;;13.54;46.48;98910.56;113427;1202;64378;-83
2021/04/10 07:09:06;;;;;;;14.90;9.05;;;;;;;13.51;46.89;98918.84;113397;1202;64481;-84
2021/04/10 07:11:33;;;;;;;13.17;7.30;;;;;;;13.52;46.71;98925.89;113550;1202;64342;-82
2021/04/10 07:14:01;;;;;;;6.90;3.73;;;;;;;13.50;44.65;98913.61;113478;1203;64359;-83
2021/04/10 07:16:38;;;;;;;5.20;3.40;;;;;;;13.48;45.05;98915.55;113431;1202;64375;-83
2021/04/10 07:19:12;;;;;;;6.50;3.50;;;;;;;13.52;44.92;98917.86;113429;1203;64471;-86
2021/04/10 07:21:39;;;;;;;4.97;3.00;;;;;;;13.59;43.40;98913.73;113638;1203;64436;-80
2021/04/10 07:24:07;;;;;;;7.40;4.40;;;;;;;13.63;43.59;98918.83;113684;1202;64401;-82
2021/04/10 07:26:57;;;;;;;6.55;3.15;;;;;;;13.67;43.11;98910.43;113417;1202;64510;-79
2021/04/10 07:29:36;;;;;;;4.73;3.00;;;;;;;13.74;43.15;98916.13;113132;1202;64394;-80
2021/04/10 07:32:38;;;;;;;5.27;3.40;;;;;;;13.82;42.29;98905.63;113143;1203;64445;-79
2021/04/10 07:35:07;;;;;;;3.73;2.53;;;;;;;13.89;42.37;98912.20;113212;1203;64394;-79
2021/04/10 07:37:40;;;;;;;3.00;2.53;;;;;;;13.98;41.43;98911.45;113252;1203;64397;-79
2021/04/10 07:40:27;;;;;;;4.45;2.80;;;;;;;14.11;40.99;98913.95;113165;1203;64509;-80
2021/04/10 07:43:01;;;;;;;5.45;3.20;;;;;;;14.27;41.74;98916.23;113333;1202;64356;-80
2021/04/10 07:45:34;;;;;;;5.10;2.90;;;;;;;14.41;41.11;98925.80;113437;1202;64426;-78
2021/04/10 07:48:01;;;;;;;;;;;;;;;14.53;40.24;98919.41;113174;1203;64519;-79
2021/04/10 07:50:30;;;;;;;5.87;3.50;;;;;;;14.61;40.95;98916.08;113255;1203;64372;-79
2021/04/10 07:52:57;;;;;;;4.73;3.27;;;;;;;14.74;41.41;98915.89;113311;1203;64391;-81
2021/04/10 07:55:42;;;;;;;5.03;3.20;;;;;;;14.87;40.58;98914.70;113179;1203;64320;-79
2021/04/10 07:58:25;;;;;;;5.65;2.50;;;;;;;14.96;39.67;98923.82;113197;1202;64397;-78
2021/04/10 08:00:55;;;;;;;5.05;2.25;;;;;;;15.04;40.16;98915.11;113201;1203;64417;-80
2021/04/10 08:03:29;;;;;;;5.95;2.75;;;;;;;15.16;41.13;98924.75;113252;1202;64432;-79
2021/04/10 08:06:17;;;;;;;6.10;2.80;;;;;;;15.32;40.80;98924.27;113094;1202;64543;-78
2021/04/10 08:08:53;;;;;;;4.05;2.50;;;;;;;15.40;40.20;98920.91;113338;1203;64384;-79
2021/04/10 08:11:33;;;;;;;4.47;2.50;;;;;;;15.44;39.99;98919.67;113398;1203;64423;-81
2021/04/10 08:14:05;;;;;;;4.07;2.53;;;;;;;15.49;39.13;98918.27;113379;1203;64471;-79
2021/04/10 08:16:37;;;;;;;4.30;2.40;;;;;;;15.55;39.17;98916.88;113376;1203;64369;-79
2021/04/10 08:19:04;;;;;;;7.55;2.25;;;;;;;15.55;39.32;98916.88;113232;1203;64398;-78
2021/04/10 08:21:33;;;;;;;5.80;3.05;;;;;;;15.61;38.91;98916.31;113146;1203;64432;-78
2021/04/10 08:24:01;;;;;;;3.80;2.50;;;;;;;15.69;39.99;98913.86;113150;1202;64427;-78
2021/04/10 08:26:28;;;;;;;5.30;3.00;;;;;;;15.78;39.55;98915.70;113190;1203;64535;-80
2021/04/10 08:28:55;;;;;;;6.80;3.00;;;;;;;15.84;38.86;98908.92;113240;1202;64452;-79
2021/04/10 08:31:22;;;;;;;6.30;2.80;;;;;;;15.85;38.70;98904.39;113209;1203;64430;-79
2021/04/10 08:33:48;;;;;;;7.35;2.45;;;;;;;15.89;38.93;98908.52;113124;1203;64362;-79
2021/04/10 08:36:17;;;;;;;5.40;3.03;;;;;;;15.93;38.23;98907.23;113320;1203;65996;-80
2021/04/10 08:38:44;;;;;;;4.57;2.60;;;;;;;15.97;38.14;98906.83;113346;1202;64419;-79
2021/04/10 08:41:12;;;;;;;2.93;2.30;;;;;;;16.03;38.53;98905.41;113378;1203;64582;-78
2021/04/10 08:43:44;;;;;;;6.60;2.70;;;;;;;16.17;38.64;98907.71;113429;1202;64368;-78
2021/04/10 08:46:11;;;;;;;5.40;2.53;;;;;;;16.31;38.79;98897.53;113199;1203;64314;-78
2021/04/10 08:48:39;;;;;;;4.33;2.50;;;;;;;16.41;38.91;98906.45;113110;1203;64417;-80
2021/04/10 08:51:08;;;;;;;3.50;2.45;;;;;;;16.52;38.06;98906.29;113360;1203;64439;-79
2021/04/10 08:53:39;;;;;;;3.57;2.50;;;;;;;16.60;37.57;98903.73;113364;1203;64413;-78
2021/04/10 08:56:08;;;;;;;5.50;2.85;;;;;;;16.62;37.14;98908.98;113195;1203;64403;-79
2021/04/10 08:58:35;;;;;;;3.00;2.57;;;;;;;16.67;37.47;98899.48;113359;1203;64388;-79
2021/04/10 09:01:08;;;;;;;4.80;3.55;;;;;;;16.78;37.86;98903.05;113265;1203;64397;-79
2021/04/10 09:03:45;;;;;;;4.30;3.20;;;;;;;16.94;36.85;98907.83;113179;1202;64426;-79
2021/04/10 09:06:31;;;;;;;5.50;2.30;;;;;;;16.98;36.88;98906.52;113159;1202;64445;-80
2021/04/10 09:09:17;;;;;;;4.40;2.60;;;;;;;17.05;36.47;98907.65;113323;1202;64426;-79
2021/04/10 09:11:46;;;;;;;5.90;3.15;;;;;;;17.12;36.26;98908.77;113200;1203;64382;-79
2021/04/10 09:14:14;;;;;;;3.87;2.37;;;;;;;17.14;35.54;98904.09;113298;1203;64381;-79
2021/04/10 09:16:44;;;;;;;4.30;2.45;;;;;;;17.18;34.38;98896.56;113334;1202;64452;-79
2021/04/10 09:19:11;;;;;;;4.10;2.30;;;;;;;17.08;32.90;98902.81;113300;1203;64506;-79
2021/04/10 09:21:45;;;;;;;3.80;2.10;;;;;;;17.11;34.96;98910.63;113279;1203;64391;-80
2021/04/10 09:24:26;;;;;;;3.90;2.80;;;;;;;17.24;34.60;98902.19;113319;1203;64385;-80
2021/04/10 09:26:56;;;;;;;3.93;2.87;;;;;;;17.29;34.59;98901.75;113250;1203;64468;-82
2021/04/10 09:29:24;;;;;;;4.73;2.13;;;;;;;17.30;34.47;98898.08;113475;1202;64464;-81
2021/04/10 09:32:13;;;;;;;3.65;2.10;;;;;;;17.33;34.16;98892.39;113630;1202;64474;-80
2021/04/10 09:34:43;;;;;;;4.13;2.50;;;;;;;17.29;33.17;98891.82;113578;1202;64391;-80
2021/04/10 09:37:11;;;;;;;4.33;2.13;;;;;;;17.22;33.42;98890.74;113546;1203;64382;-79
2021/04/10 09:40:00;;;;;;;5.70;2.40;;;;;;;17.29;33.22;98896.37;113653;1203;64366;-80
2021/04/10 09:42:36;;;;;;;4.30;2.40;;;;;;;17.38;33.37;98889.23;113570;1203;64516;-79
2021/04/10 09:45:23;;;;;;;2.50;2.20;;;;;;;17.51;33.39;98884.38;113504;1202;64394;-80
2021/04/10 09:47:55;;;;;;;4.57;2.53;;;;;;;17.64;32.73;98886.70;113413;1202;64924;-79
2021/04/10 09:50:22;;;;;;;6.13;3.97;;;;;;;17.70;33.22;98873.48;113339;1202;64439;-79
2021/04/10 09:53:11;;;;;;;4.35;2.65;;;;;;;17.81;32.83;98888.63;113253;1203;64414;-82
2021/04/10 09:55:40;;;;;;;5.07;2.80;;;;;;;17.85;32.89;98881.08;113285;1203;64404;-81
2021/04/10 09:58:10;;;;;;;4.40;2.95;;;;;;;17.76;31.13;98894.43;113306;1203;64516;-80
2021/04/10 10:00:36;;;;;;;5.37;3.00;;;;;;;17.69;31.60;98884.40;113323;1203;64381;-79
2021/04/10 10:03:06;;;;;;;5.10;2.60;;;;;;;17.65;31.75;98877.63;113367;1203;64398;-79
2021/04/10 10:05:41;;;;;;;3.80;2.90;;;;;;;17.72;32.36;98878.70;113242;1203;64387;-80
2021/04/10 10:08:13;;;;;;;6.50;4.00;;;;;;;17.81;32.22;98882.39;113280;1203;64369;-80
2021/04/10 10:10:55;;;;;;;3.50;2.60;;;;;;;17.93;32.06;98876.64;113254;1202;64365;-80
2021/04/10 10:13:30;;;;;;;3.80;2.70;;;;;;;17.98;32.08;98879.73;113170;1203;64461;-78
2021/04/10 10:15:57;;;;;;;2.97;2.20;;;;;;;17.94;30.59;98872.93;113142;1203;64343;-79
2021/04/10 10:18:38;;;;;;;4.70;2.10;;;;;;;17.88;31.02;98878.09;113236;1203;64394;-79
2021/04/10 10:21:21;;;;;;;4.60;2.13;;;;;;;17.95;31.69;98876.47;113184;1202;64481;-79
2021/04/10 10:23:49;;;;;;;4.40;2.70;;;;;;;18.08;30.56;98882.33;113328;1202;64483;-79
2021/04/10 10:26:27;;;;;;;4.05;2.40;;;;;;;18.05;30.70;98885.34;113261;1203;64384;-79
2021/04/10 10:28:59;;;;;;;6.00;2.30;;;;;;;18.07;31.28;98882.50;113261;1203;64327;-81
2021/04/10 10:31:28;;;;;;;6.43;2.30;;;;;;;18.19;31.64;98878.55;113275;1203;64388;-78
2021/04/10 10:34:04;;;;;;;4.80;2.70;;;;;;;18.26;30.96;98878.80;113318;1202;64688;-80
2021/04/10 10:36:35;;;;;;;4.80;2.60;;;;;;;18.26;30.98;98879.64;113433;1203;64490;-79
2021/04/10 10:39:05;;;;;;;3.10;1.97;;;;;;;18.29;30.32;98882.03;113405;1203;64464;-79
2021/04/10 10:41:43;;;;;;;3.50;2.20;;;;;;;18.32;31.12;98881.71;113445;1203;64365;-79
2021/04/10 10:44:11;;;;;;;2.80;2.20;;;;;;;18.44;30.57;98879.64;113321;1203;64388;-78
2021/04/10 10:46:38;;;;;;;3.55;2.30;;;;;;;18.48;29.86;98880.16;113327;1203;64506;-78
2021/04/10 10:49:09;;;;;;;3.40;2.50;;;;;;;18.51;30.13;98882.55;113470;1203;64525;-79
2021/04/10 10:51:41;;;;;;;3.50;2.20;;;;;;;18.52;30.30;98882.41;113236;1203;64414;-79
2021/04/10 10:54:09;;;;;;;4.00;2.60;;;;;;;18.50;29.60;98878.16;113266;1203;64368;-78
2021/04/10 10:56:36;;;;;;;2.65;2.45;;;;;;;18.48;29.98;98885.56;113191;1202;64359;-79
2021/04/10 10:59:08;;;;;;;3.93;2.50;;;;;;;18.40;30.10;98881.81;113372;1203;64410;-79
2021/04/10 11:01:35;;;;;;;4.70;2.60;;;;;;;18.44;30.28;98885.03;113285;1203;64821;-79
2021/04/10 11:04:06;;;;;;;4.95;3.00;;;;;;;18.53;30.56;98886.78;113336;1203;64390;-79
2021/04/10 11:06:40;;;;;;;4.90;3.25;;;;;;;18.66;30.73;98894.48;113237;1202;64388;-79
2021/04/10 11:09:10;;;;;;;3.90;2.90;;;;;;;18.76;30.67;98884.47;113333;1202;64432;-78
2021/04/10 11:11:41;;;;;;;3.20;2.55;;;;;;;18.93;30.67;98889.98;113343;1203;64411;-78
2021/04/10 11:14:09;;;;;;;4.05;2.65;;;;;;;18.92;30.12;98888.30;113247;1203;64493;-79
2021/04/10 11:16:45;;;;;;;6.25;2.65;;;;;;;18.92;30.14;98891.00;113286;1203;64426;-79
2021/04/10 11:19:23;;;;;;;3.60;2.40;;;;;;;18.90;30.18;98880.34;113391;1203;64375;-79
2021/04/10 11:21:51;;;;;;;6.20;2.57;;;;;;;18.88;28.84;98887.78;113302;1202;64435;-79
2021/04/10 11:24:18;;;;;;;3.55;2.10;;;;;;;18.78;29.37;98887.03;113353;1203;64468;-79
2021/04/10 11:26:48;;;;;;;4.20;2.70;;;;;;;18.59;28.54;98899.67;113367;1203;64404;-79
2021/04/10 11:29:17;;;;;;;5.40;2.40;;;;;;;18.49;28.67;98884.58;113236;1203;64422;-79
2021/04/10 11:32:03;;;;;;;2.73;2.53;;;;;;;18.42;30.03;98895.97;113307;1202;64394;-79